CheckWX is a tool to help pilots better visualize weather data.  It is not intended as a substitute for an official pre-flight weather briefing.

19:03:04 UTC

KAXH METAR
Houston-Southwest Airport
Houston, Texas, USA
Current

28 mins ago

KAXH 221835Z AUTO 03003KT 1SM BR OVC003 17/17 A2994 RMK AO2 T01660166
Observed
Feb-22 @ 18:35 UTC
Wind
  • 030° at 3 KTS
Visibility
1 SM
Flight Rules
LIFR
Conditions
Mist
Cloud Levels
  • Overcast at 300' AGL
Temperature
17°C / 63°F
Dewpoint
17°C / 63°F
Humidity
100%
Altimeter
29.94" Hg
Pressure
1013.92 hPa
Previous

48 mins ago

KAXH 221815Z AUTO 07003KT 1/2SM FG OVC003 16/16 A2995 RMK AO2 T01620162
Observed
Feb-22 @ 18:15 UTC
Wind
  • 070° at 3 KTS
Visibility
1/2 SM
Flight Rules
LIFR
Conditions
Fog
Cloud Levels
  • Overcast at 300' AGL
Temperature
16°C / 61°F
Dewpoint
16°C / 61°F
Humidity
100%
Altimeter
29.95" Hg
Pressure
1014.22 hPa
Previous

1 hour ago

KAXH 221755Z AUTO 1/2SM FG OVC003 16/16 A2996 RMK AO2 T01610161 10161 20100
Observed
Feb-22 @ 17:55 UTC
Visibility
1/2 SM
Flight Rules
LIFR
Conditions
Fog
Cloud Levels
  • Overcast at 300' AGL
Temperature
16°C / 61°F
Dewpoint
16°C / 61°F
Humidity
100%
Altimeter
29.96" Hg
Pressure
1014.52 hPa